sensor_id;sensor_type;location;lat;lon;timestamp;pressure;altitude;pressure_sealevel;temperature;humidity
30873;BME280;17579;42.690;2.586;2022-10-28T00:02:15;98062.16;;;19.77;74.54
30873;BME280;17579;42.690;2.586;2022-10-28T00:04:41;98066.50;;;19.78;74.48
30873;BME280;17579;42.690;2.586;2022-10-28T00:07:06;98063.69;;;19.80;74.54
30873;BME280;17579;42.690;2.586;2022-10-28T00:09:32;98062.84;;;19.79;74.26
30873;BME280;17579;42.690;2.586;2022-10-28T00:11:57;98064.38;;;19.73;74.44
30873;BME280;17579;42.690;2.586;2022-10-28T00:14:23;98058.19;;;19.73;74.36
30873;BME280;17579;42.690;2.586;2022-10-28T00:16:49;98053.81;;;19.72;74.48
30873;BME280;17579;42.690;2.586;2022-10-28T00:19:14;98052.00;;;19.72;74.27
30873;BME280;17579;42.690;2.586;2022-10-28T00:21:47;98067.06;;;19.73;74.56
30873;BME280;17579;42.690;2.586;2022-10-28T00:24:12;98067.25;;;19.72;74.34
30873;BME280;17579;42.690;2.586;2022-10-28T00:26:40;98060.56;;;19.68;74.65
30873;BME280;17579;42.690;2.586;2022-10-28T00:29:13;98058.91;;;19.67;74.35
30873;BME280;17579;42.690;2.586;2022-10-28T00:31:39;98058.06;;;19.66;74.46
30873;BME280;17579;42.690;2.586;2022-10-28T00:34:10;98067.31;;;19.64;74.26
30873;BME280;17579;42.690;2.586;2022-10-28T00:36:40;98069.84;;;19.65;74.70
30873;BME280;17579;42.690;2.586;2022-10-28T00:39:18;98062.81;;;19.64;74.25
30873;BME280;17579;42.690;2.586;2022-10-28T00:41:52;98071.31;;;19.68;74.51
30873;BME280;17579;42.690;2.586;2022-10-28T00:53:07;98072.34;;;19.67;74.35
30873;BME280;17579;42.690;2.586;2022-10-28T00:55:34;98076.03;;;19.66;74.08
30873;BME280;17579;42.690;2.586;2022-10-28T00:58:01;98069.00;;;19.65;74.00
30873;BME280;17579;42.690;2.586;2022-10-28T01:00:28;98070.84;;;19.64;74.51
30873;BME280;17579;42.690;2.586;2022-10-28T01:02:54;98074.34;;;19.65;74.23
30873;BME280;17579;42.690;2.586;2022-10-28T01:05:23;98069.16;;;19.63;74.24
30873;BME280;17579;42.690;2.586;2022-10-28T01:07:51;98071.84;;;19.63;74.48
30873;BME280;17579;42.690;2.586;2022-10-28T01:10:18;98078.03;;;19.64;73.79
30873;BME280;17579;42.690;2.586;2022-10-28T01:15:51;98078.34;;;19.69;74.16
30873;BME280;17579;42.690;2.586;2022-10-28T01:18:39;98077.72;;;19.67;73.93
30873;BME280;17579;42.690;2.586;2022-10-28T01:21:35;98061.78;;;19.65;73.76
30873;BME280;17579;42.690;2.586;2022-10-28T01:27:47;98068.63;;;19.68;73.69
30873;BME280;17579;42.690;2.586;2022-10-28T01:30:25;98070.78;;;19.72;73.62
30873;BME280;17579;42.690;2.586;2022-10-28T01:33:03;98058.38;;;19.71;73.93
30873;BME280;17579;42.690;2.586;2022-10-28T01:35:43;98061.69;;;19.73;73.64
30873;BME280;17579;42.690;2.586;2022-10-28T01:38:49;98060.19;;;19.71;73.83
30873;BME280;17579;42.690;2.586;2022-10-28T01:41:32;98058.00;;;19.74;73.63
30873;BME280;17579;42.690;2.586;2022-10-28T01:44:04;98046.63;;;19.72;73.37
30873;BME280;17579;42.690;2.586;2022-10-28T01:46:40;98055.69;;;19.71;73.62
30873;BME280;17579;42.690;2.586;2022-10-28T01:49:15;98053.81;;;19.72;73.76
30873;BME280;17579;42.690;2.586;2022-10-28T01:51:52;98053.19;;;19.70;73.95
30873;BME280;17579;42.690;2.586;2022-10-28T01:54:22;98051.81;;;19.74;73.57
30873;BME280;17579;42.690;2.586;2022-10-28T01:56:49;98047.25;;;19.74;73.50
30873;BME280;17579;42.690;2.586;2022-10-28T01:59:20;98053.44;;;19.75;73.40
30873;BME280;17579;42.690;2.586;2022-10-28T02:01:47;98055.94;;;19.77;73.37
30873;BME280;17579;42.690;2.586;2022-10-28T02:04:13;98044.03;;;19.79;73.39
30873;BME280;17579;42.690;2.586;2022-10-28T02:06:39;98046.53;;;19.81;73.83
30873;BME280;17579;42.690;2.586;2022-10-28T02:09:18;98049.41;;;19.79;73.58
30873;BME280;17579;42.690;2.586;2022-10-28T02:12:11;98048.59;;;19.79;73.39
30873;BME280;17579;42.690;2.586;2022-10-28T02:21:03;98041.50;;;19.78;73.37
30873;BME280;17579;42.690;2.586;2022-10-28T02:26:51;98029.97;;;19.77;73.22
30873;BME280;17579;42.690;2.586;2022-10-28T02:29:32;98030.63;;;19.79;72.92
30873;BME280;17579;42.690;2.586;2022-10-28T02:32:04;98028.09;;;19.78;72.70
30873;BME280;17579;42.690;2.586;2022-10-28T02:34:37;98032.16;;;19.73;73.22
30873;BME280;17579;42.690;2.586;2022-10-28T02:37:10;98040.41;;;19.72;72.95
30873;BME280;17579;42.690;2.586;2022-10-28T02:39:41;98041.25;;;19.72;73.12
30873;BME280;17579;42.690;2.586;2022-10-28T02:42:16;98040.41;;;19.72;72.87
30873;BME280;17579;42.690;2.586;2022-10-28T02:44:48;98037.72;;;19.72;73.15
30873;BME280;17579;42.690;2.586;2022-10-28T02:47:19;98038.56;;;19.72;72.65
30873;BME280;17579;42.690;2.586;2022-10-28T02:49:54;98036.88;;;19.71;72.71
30873;BME280;17579;42.690;2.586;2022-10-28T02:52:23;98035.22;;;19.70;72.59
30873;BME280;17579;42.690;2.586;2022-10-28T02:54:56;98041.78;;;19.68;72.78
30873;BME280;17579;42.690;2.586;2022-10-28T02:57:27;98039.75;;;19.70;72.15
30873;BME280;17579;42.690;2.586;2022-10-28T02:59:59;98042.44;;;19.70;72.21
30873;BME280;17579;42.690;2.586;2022-10-28T03:02:26;98037.91;;;19.70;72.18
30873;BME280;17579;42.690;2.586;2022-10-28T03:04:51;98028.84;;;19.71;72.09
30873;BME280;17579;42.690;2.586;2022-10-28T03:07:17;98034.22;;;19.71;72.57
30873;BME280;17579;42.690;2.586;2022-10-28T03:09:43;98035.88;;;19.72;72.03
30873;BME280;17579;42.690;2.586;2022-10-28T03:12:08;98039.19;;;19.74;72.23
30873;BME280;17579;42.690;2.586;2022-10-28T03:14:34;98041.88;;;19.74;72.15
30873;BME280;17579;42.690;2.586;2022-10-28T03:16:59;98046.25;;;19.76;72.10
30873;BME280;17579;42.690;2.586;2022-10-28T03:19:25;98038.19;;;19.76;71.58
30873;BME280;17579;42.690;2.586;2022-10-28T03:21:50;98041.69;;;19.76;71.75
30873;BME280;17579;42.690;2.586;2022-10-28T03:24:16;98040.03;;;19.75;71.49
30873;BME280;17579;42.690;2.586;2022-10-28T03:26:41;98044.38;;;19.76;71.70
30873;BME280;17579;42.690;2.586;2022-10-28T03:29:07;98039.00;;;19.76;71.47
30873;BME280;17579;42.690;2.586;2022-10-28T03:31:33;98039.84;;;19.77;71.44
30873;BME280;17579;42.690;2.586;2022-10-28T03:33:59;98039.84;;;19.77;71.60
30873;BME280;17579;42.690;2.586;2022-10-28T03:36:24;98043.38;;;19.77;71.67
30873;BME280;17579;42.690;2.586;2022-10-28T03:38:50;98048.75;;;19.77;71.16
30873;BME280;17579;42.690;2.586;2022-10-28T03:41:15;98050.56;;;19.77;71.37
30873;BME280;17579;42.690;2.586;2022-10-28T03:43:41;98045.41;;;19.75;71.08
30873;BME280;17579;42.690;2.586;2022-10-28T03:46:06;98045.22;;;19.77;71.38
30873;BME280;17579;42.690;2.586;2022-10-28T03:48:32;98032.81;;;19.76;70.95
30873;BME280;17579;42.690;2.586;2022-10-28T03:50:58;98035.69;;;19.74;70.79
30873;BME280;17579;42.690;2.586;2022-10-28T03:53:23;98039.56;;;19.71;70.79
30873;BME280;17579;42.690;2.586;2022-10-28T03:55:54;98045.31;;;19.68;71.46
30873;BME280;17579;42.690;2.586;2022-10-28T03:58:21;98045.13;;;19.70;70.82
30873;BME280;17579;42.690;2.586;2022-10-28T04:00:48;98038.09;;;19.69;70.86
30873;BME280;17579;42.690;2.586;2022-10-28T04:03:14;98042.63;;;19.68;70.80
30873;BME280;17579;42.690;2.586;2022-10-28T04:05:40;98041.78;;;19.68;71.38
30873;BME280;17579;42.690;2.586;2022-10-28T04:08:06;98043.47;;;19.69;70.84
30873;BME280;17579;42.690;2.586;2022-10-28T04:10:32;98043.47;;;19.69;71.03
30873;BME280;17579;42.690;2.586;2022-10-28T04:13:03;98047.34;;;19.66;70.88
30873;BME280;17579;42.690;2.586;2022-10-28T04:15:28;98046.13;;;19.69;70.58
30873;BME280;17579;42.690;2.586;2022-10-28T04:17:54;98049.84;;;19.68;70.88
30873;BME280;17579;42.690;2.586;2022-10-28T04:20:19;98051.50;;;19.69;70.55
30873;BME280;17579;42.690;2.586;2022-10-28T04:22:45;98055.88;;;19.70;70.79
30873;BME280;17579;42.690;2.586;2022-10-28T04:25:11;98047.16;;;19.68;70.29
30873;BME280;17579;42.690;2.586;2022-10-28T04:27:36;98045.50;;;19.67;70.54
30873;BME280;17579;42.690;2.586;2022-10-28T04:30:03;98050.88;;;19.67;70.30
30873;BME280;17579;42.690;2.586;2022-10-28T04:32:28;98060.75;;;19.66;70.38
30873;BME280;17579;42.690;2.586;2022-10-28T04:34:54;98057.88;;;19.68;70.02
30873;BME280;17579;42.690;2.586;2022-10-28T04:37:19;98058.06;;;19.66;70.15
30873;BME280;17579;42.690;2.586;2022-10-28T04:39:45;98049.38;;;19.64;70.22
30873;BME280;17579;42.690;2.586;2022-10-28T04:42:10;98054.25;;;19.61;70.12
30873;BME280;17579;42.690;2.586;2022-10-28T04:44:36;98054.63;;;19.58;70.36
30873;BME280;17579;42.690;2.586;2022-10-28T04:47:01;98053.81;;;19.57;70.38
30873;BME280;17579;42.690;2.586;2022-10-28T04:49:27;98054.00;;;19.55;70.14
30873;BME280;17579;42.690;2.586;2022-10-28T04:51:52;98056.19;;;19.52;70.62
30873;BME280;17579;42.690;2.586;2022-10-28T04:54:18;98057.88;;;19.53;70.18
30873;BME280;17579;42.690;2.586;2022-10-28T04:56:44;98055.00;;;19.54;69.93
30873;BME280;17579;42.690;2.586;2022-10-28T04:59:09;98055.81;;;19.55;69.76
30873;BME280;17579;42.690;2.586;2022-10-28T05:01:35;98064.72;;;19.55;70.06
30873;BME280;17579;42.690;2.586;2022-10-28T05:04:01;98069.44;;;19.53;70.02
30873;BME280;17579;42.690;2.586;2022-10-28T05:06:27;98060.75;;;19.51;69.88
30873;BME280;17579;42.690;2.586;2022-10-28T05:08:53;98061.94;;;19.49;70.13
30873;BME280;17579;42.690;2.586;2022-10-28T05:11:19;98063.13;;;19.46;70.22
30873;BME280;17579;42.690;2.586;2022-10-28T05:13:44;98065.16;;;19.44;70.22
30873;BME280;17579;42.690;2.586;2022-10-28T05:16:10;98062.84;;;19.41;70.25
30873;BME280;17579;42.690;2.586;2022-10-28T05:18:35;98056.00;;;19.38;70.11
30873;BME280;17579;42.690;2.586;2022-10-28T05:21:01;98059.69;;;19.37;69.63
30873;BME280;17579;42.690;2.586;2022-10-28T05:23:27;98056.38;;;19.35;69.58
30873;BME280;17579;42.690;2.586;2022-10-28T05:25:53;98058.38;;;19.33;69.43
30873;BME280;17579;42.690;2.586;2022-10-28T05:28:18;98061.91;;;19.34;69.56
30873;BME280;17579;42.690;2.586;2022-10-28T05:30:44;98061.91;;;19.34;69.68
30873;BME280;17579;42.690;2.586;2022-10-28T05:33:10;98065.41;;;19.34;69.69
30873;BME280;17579;42.690;2.586;2022-10-28T05:35:36;98061.06;;;19.33;69.62
30873;BME280;17579;42.690;2.586;2022-10-28T05:38:02;98059.06;;;19.35;69.61
30873;BME280;17579;42.690;2.586;2022-10-28T05:40:28;98054.50;;;19.36;69.48
30873;BME280;17579;42.690;2.586;2022-10-28T05:42:54;98077.81;;;19.35;69.31
30873;BME280;17579;42.690;2.586;2022-10-28T05:45:20;98072.16;;;19.30;68.96
30873;BME280;17579;42.690;2.586;2022-10-28T05:47:47;98072.03;;;19.24;69.22
30873;BME280;17579;42.690;2.586;2022-10-28T05:50:14;98065.03;;;19.23;69.33
30873;BME280;17579;42.690;2.586;2022-10-28T05:52:51;98074.91;;;19.22;69.44
30873;BME280;17579;42.690;2.586;2022-10-28T05:55:18;98075.03;;;19.29;69.34
30873;BME280;17579;42.690;2.586;2022-10-28T05:57:45;98081.88;;;19.31;69.62
30873;BME280;17579;42.690;2.586;2022-10-28T06:00:12;98080.88;;;19.32;69.24
30873;BME280;17579;42.690;2.586;2022-10-28T06:02:38;98080.19;;;19.30;68.78
30873;BME280;17579;42.690;2.586;2022-10-28T06:05:04;98087.44;;;19.30;69.08
30873;BME280;17579;42.690;2.586;2022-10-28T06:07:30;98079.38;;;19.30;68.89
30873;BME280;17579;42.690;2.586;2022-10-28T06:09:55;98082.88;;;19.30;68.80
30873;BME280;17579;42.690;2.586;2022-10-28T06:12:21;98080.19;;;19.30;69.18
30873;BME280;17579;42.690;2.586;2022-10-28T06:14:47;98085.56;;;19.30;68.81
30873;BME280;17579;42.690;2.586;2022-10-28T06:17:12;98076.50;;;19.31;68.91
30873;BME280;17579;42.690;2.586;2022-10-28T06:19:38;98078.53;;;19.29;69.03
30873;BME280;17579;42.690;2.586;2022-10-28T06:22:04;98082.88;;;19.30;68.77
30873;BME280;17579;42.690;2.586;2022-10-28T06:24:29;98092.59;;;19.31;69.16
30873;BME280;17579;42.690;2.586;2022-10-28T06:26:55;98089.94;;;19.31;68.88
30873;BME280;17579;42.690;2.586;2022-10-28T06:29:21;98097.78;;;19.33;68.92
30873;BME280;17579;42.690;2.586;2022-10-28T06:31:46;98097.59;;;19.34;68.42
30873;BME280;17579;42.690;2.586;2022-10-28T06:34:12;98100.09;;;19.36;68.48
30873;BME280;17579;42.690;2.586;2022-10-28T06:36:38;98106.16;;;19.38;68.53
30873;BME280;17579;42.690;2.586;2022-10-28T06:39:04;98104.09;;;19.40;68.52
30873;BME280;17579;42.690;2.586;2022-10-28T06:41:30;98108.28;;;19.43;68.35
30873;BME280;17579;42.690;2.586;2022-10-28T06:43:55;98111.59;;;19.45;68.67
30873;BME280;17579;42.690;2.586;2022-10-28T06:46:21;98112.28;;;19.47;68.82
30873;BME280;17579;42.690;2.586;2022-10-28T06:48:46;98119.97;;;19.50;68.85
30873;BME280;17579;42.690;2.586;2022-10-28T06:51:12;98115.22;;;19.52;68.85
30873;BME280;17579;42.690;2.586;2022-10-28T06:53:38;98114.22;;;19.53;68.67
30873;BME280;17579;42.690;2.586;2022-10-28T06:56:04;98112.34;;;19.53;68.45
30873;BME280;17579;42.690;2.586;2022-10-28T06:58:29;98113.03;;;19.55;68.33
30873;BME280;17579;42.690;2.586;2022-10-28T07:00:55;98115.72;;;19.55;68.76
30873;BME280;17579;42.690;2.586;2022-10-28T07:03:21;98113.66;;;19.58;68.66
30873;BME280;17579;42.690;2.586;2022-10-28T07:05:47;98122.91;;;19.55;68.54
30873;BME280;17579;42.690;2.586;2022-10-28T07:08:15;98123.59;;;19.57;68.52
30873;BME280;17579;42.690;2.586;2022-10-28T07:10:41;98130.44;;;19.60;68.29
30873;BME280;17579;42.690;2.586;2022-10-28T07:13:06;98127.38;;;19.63;68.11
30873;BME280;17579;42.690;2.586;2022-10-28T07:15:32;98123.97;;;19.69;67.92
30873;BME280;17579;42.690;2.586;2022-10-28T07:17:58;98135.34;;;19.71;67.86
30873;BME280;17579;42.690;2.586;2022-10-28T07:20:26;98134.16;;;19.73;68.11
30873;BME280;17579;42.690;2.586;2022-10-28T07:22:57;98135.19;;;19.72;68.10
30873;BME280;17579;42.690;2.586;2022-10-28T07:25:23;98142.56;;;19.70;68.03
30873;BME280;17579;42.690;2.586;2022-10-28T07:27:49;98137.75;;;19.66;67.84
30873;BME280;17579;42.690;2.586;2022-10-28T07:30:14;98140.81;;;19.63;68.38
30873;BME280;17579;42.690;2.586;2022-10-28T07:32:40;98144.69;;;19.60;68.02
30873;BME280;17579;42.690;2.586;2022-10-28T07:35:06;98151.06;;;19.59;68.23
30873;BME280;17579;42.690;2.586;2022-10-28T07:37:31;98155.06;;;19.63;68.32
30873;BME280;17579;42.690;2.586;2022-10-28T07:39:57;98155.53;;;19.67;68.84
30873;BME280;17579;42.690;2.586;2022-10-28T07:42:22;98155.34;;;19.68;68.63
30873;BME280;17579;42.690;2.586;2022-10-28T07:44:48;98153.31;;;19.70;69.02
30873;BME280;17579;42.690;2.586;2022-10-28T07:47:14;98153.97;;;19.72;68.90
30873;BME280;17579;42.690;2.586;2022-10-28T07:49:41;98152.31;;;19.71;68.97
30873;BME280;17579;42.690;2.586;2022-10-28T07:52:06;98157.94;;;19.77;68.84
30873;BME280;17579;42.690;2.586;2022-10-28T07:54:32;98163.66;;;19.82;69.25
30873;BME280;17579;42.690;2.586;2022-10-28T07:56:57;98167.16;;;19.82;69.34
30873;BME280;17579;42.690;2.586;2022-10-28T07:59:23;98171.69;;;19.82;69.52
30873;BME280;17579;42.690;2.586;2022-10-28T08:01:50;98178.38;;;19.86;69.62
30873;BME280;17579;42.690;2.586;2022-10-28T08:04:15;98176.31;;;19.88;69.03
30873;BME280;17579;42.690;2.586;2022-10-28T08:06:41;98170.78;;;19.89;69.65
30873;BME280;17579;42.690;2.586;2022-10-28T08:09:07;98170.25;;;19.94;69.36
30873;BME280;17579;42.690;2.586;2022-10-28T08:11:32;98169.69;;;19.99;69.18
30873;BME280;17579;42.690;2.586;2022-10-28T08:13:58;98169.97;;;20.04;69.22
30873;BME280;17579;42.690;2.586;2022-10-28T08:16:23;98167.75;;;20.07;69.49
30873;BME280;17579;42.690;2.586;2022-10-28T08:18:49;98171.28;;;20.08;69.55
30873;BME280;17579;42.690;2.586;2022-10-28T08:21:19;98165.91;;;20.08;69.39
30873;BME280;17579;42.690;2.586;2022-10-28T08:23:45;98169.25;;;20.10;69.38
30873;BME280;17579;42.690;2.586;2022-10-28T08:26:12;98167.88;;;20.14;69.49
30873;BME280;17579;42.690;2.586;2022-10-28T08:28:39;98163.50;;;20.13;68.57
30873;BME280;17579;42.690;2.586;2022-10-28T08:31:05;98165.06;;;20.07;68.77
30873;BME280;17579;42.690;2.586;2022-10-28T08:33:34;98168.97;;;20.05;68.73
30873;BME280;17579;42.690;2.586;2022-10-28T08:36:00;98165.44;;;20.04;68.27
30873;BME280;17579;42.690;2.586;2022-10-28T08:38:26;98171.47;;;20.06;68.06
30873;BME280;17579;42.690;2.586;2022-10-28T08:49:39;98171.38;;;20.30;67.94
30873;BME280;17579;42.690;2.586;2022-10-28T08:55:10;98173.25;;;20.29;67.19
30873;BME280;17579;42.690;2.586;2022-10-28T08:57:43;98165.19;;;20.29;67.17
30873;BME280;17579;42.690;2.586;2022-10-28T09:00:18;98172.59;;;20.27;67.09
30873;BME280;17579;42.690;2.586;2022-10-28T09:05:37;98178.41;;;20.46;67.17
30873;BME280;17579;42.690;2.586;2022-10-28T09:08:04;98177.94;;;20.57;66.59
30873;BME280;17579;42.690;2.586;2022-10-28T09:16:46;98181.84;;;20.84;66.41
30873;BME280;17579;42.690;2.586;2022-10-28T09:19:42;98183.13;;;20.88;66.25
30873;BME280;17579;42.690;2.586;2022-10-28T09:25:20;98174.63;;;20.85;65.96
30873;BME280;17579;42.690;2.586;2022-10-28T09:28:08;98174.63;;;20.85;66.40
30873;BME280;17579;42.690;2.586;2022-10-28T09:36:35;98182.31;;;20.88;65.89
30873;BME280;17579;42.690;2.586;2022-10-28T09:39:04;98184.81;;;20.89;65.58
30873;BME280;17579;42.690;2.586;2022-10-28T09:41:37;98188.72;;;20.87;65.86
30873;BME280;17579;42.690;2.586;2022-10-28T09:46:53;98180.34;;;20.97;64.86
30873;BME280;17579;42.690;2.586;2022-10-28T09:49:35;98191.41;;;20.87;65.27
30873;BME280;17579;42.690;2.586;2022-10-28T09:52:12;98192.31;;;20.94;65.23
30873;BME280;17579;42.690;2.586;2022-10-28T09:54:43;98187.03;;;21.01;65.05
30873;BME280;17579;42.690;2.586;2022-10-28T09:57:11;98191.63;;;21.07;64.75
30873;BME280;17579;42.690;2.586;2022-10-28T09:59:37;98190.88;;;21.13;64.45
30873;BME280;17579;42.690;2.586;2022-10-28T10:02:03;98193.44;;;21.21;64.55
30873;BME280;17579;42.690;2.586;2022-10-28T10:04:29;98199.16;;;21.33;64.41
30873;BME280;17579;42.690;2.586;2022-10-28T10:07:01;98198.47;;;21.46;64.00
30873;BME280;17579;42.690;2.586;2022-10-28T10:09:30;98186.81;;;21.60;63.85
30873;BME280;17579;42.690;2.586;2022-10-28T10:12:05;98196.84;;;21.67;63.77
30873;BME280;17579;42.690;2.586;2022-10-28T10:14:42;98190.75;;;21.58;62.93
30873;BME280;17579;42.690;2.586;2022-10-28T10:17:23;98194.13;;;21.45;63.15
30873;BME280;17579;42.690;2.586;2022-10-28T10:20:10;98193.28;;;21.44;63.28
30873;BME280;17579;42.690;2.586;2022-10-28T10:22:44;98187.81;;;21.53;63.50
30873;BME280;17579;42.690;2.586;2022-10-28T10:25:31;98191.59;;;21.58;63.21
30873;BME280;17579;42.690;2.586;2022-10-28T10:28:13;98181.72;;;21.66;63.07
30873;BME280;17579;42.690;2.586;2022-10-28T10:30:49;98186.63;;;21.62;62.57
30873;BME280;17579;42.690;2.586;2022-10-28T10:33:36;98181.25;;;21.62;62.65
30873;BME280;17579;42.690;2.586;2022-10-28T10:36:15;98192.09;;;21.69;62.81
30873;BME280;17579;42.690;2.586;2022-10-28T10:38:53;98184.00;;;21.69;62.73
30873;BME280;17579;42.690;2.586;2022-10-28T10:41:32;98177.22;;;21.73;63.21
30873;BME280;17579;42.690;2.586;2022-10-28T10:43:58;98183.28;;;21.82;62.72
30873;BME280;17579;42.690;2.586;2022-10-28T10:46:24;98179.69;;;21.96;63.28
30873;BME280;17579;42.690;2.586;2022-10-28T10:49:09;98173.81;;;22.14;63.32
30873;BME280;17579;42.690;2.586;2022-10-28T10:51:36;98177.00;;;22.31;62.31
30873;BME280;17579;42.690;2.586;2022-10-28T10:54:11;98174.63;;;22.43;62.13
30873;BME280;17579;42.690;2.586;2022-10-28T10:56:38;98173.50;;;22.65;61.71
30873;BME280;17579;42.690;2.586;2022-10-28T10:59:04;98168.78;;;22.81;60.33
30873;BME280;17579;42.690;2.586;2022-10-28T11:01:35;98176.06;;;22.80;60.14
30873;BME280;17579;42.690;2.586;2022-10-28T11:04:07;98170.44;;;22.75;60.58
30873;BME280;17579;42.690;2.586;2022-10-28T11:06:42;98161.09;;;22.78;59.82
30873;BME280;17579;42.690;2.586;2022-10-28T11:09:27;98167.53;;;22.77;60.30
30873;BME280;17579;42.690;2.586;2022-10-28T11:11:55;98161.94;;;22.78;59.55
30873;BME280;17579;42.690;2.586;2022-10-28T11:14:24;98154.50;;;22.80;59.43
30873;BME280;17579;42.690;2.586;2022-10-28T11:16:55;98147.81;;;22.76;59.57
30873;BME280;17579;42.690;2.586;2022-10-28T11:19:33;98135.56;;;22.67;60.19
30873;BME280;17579;42.690;2.586;2022-10-28T11:25:16;98135.19;;;22.83;59.75
30873;BME280;17579;42.690;2.586;2022-10-28T11:28:06;98143.94;;;22.92;58.72
30873;BME280;17579;42.690;2.586;2022-10-28T11:36:24;98127.44;;;23.15;57.93
30873;BME280;17579;42.690;2.586;2022-10-28T11:39:09;98127.44;;;23.15;57.87
30873;BME280;17579;42.690;2.586;2022-10-28T11:42:05;98121.44;;;23.27;58.18
30873;BME280;17579;42.690;2.586;2022-10-28T11:47:49;98121.03;;;23.23;57.55
30873;BME280;17579;42.690;2.586;2022-10-28T11:50:50;98116.84;;;23.21;57.72
30873;BME280;17579;42.690;2.586;2022-10-28T11:56:34;98114.09;;;23.07;57.64
30873;BME280;17579;42.690;2.586;2022-10-28T12:05:02;98096.59;;;22.76;57.90
30873;BME280;17579;42.690;2.586;2022-10-28T12:13:32;98099.28;;;22.76;57.92
30873;BME280;17579;42.690;2.586;2022-10-28T12:16:39;98088.91;;;22.80;58.35
30873;BME280;17579;42.690;2.586;2022-10-28T12:19:17;98086.06;;;22.95;57.68
30873;BME280;17579;42.690;2.586;2022-10-28T12:24:34;98079.44;;;22.97;57.21
30873;BME280;17579;42.690;2.586;2022-10-28T12:27:10;98064.69;;;23.07;57.45
30873;BME280;17579;42.690;2.586;2022-10-28T12:29:42;98068.25;;;23.14;57.22
30873;BME280;17579;42.690;2.586;2022-10-28T12:32:19;98065.38;;;23.29;57.45
30873;BME280;17579;42.690;2.586;2022-10-28T12:34:52;98061.44;;;23.45;57.42
30873;BME280;17579;42.690;2.586;2022-10-28T12:37:23;98052.91;;;23.61;56.99
30873;BME280;17579;42.690;2.586;2022-10-28T12:40:06;98048.97;;;23.70;56.28
30873;BME280;17579;42.690;2.586;2022-10-28T12:42:41;98044.97;;;23.73;54.91
30873;BME280;17579;42.690;2.586;2022-10-28T12:45:14;98046.03;;;23.65;55.58
30873;BME280;17579;42.690;2.586;2022-10-28T12:56:23;98029.19;;;23.70;55.20
30873;BME280;17579;42.690;2.586;2022-10-28T12:58:58;98030.28;;;23.62;55.48
30873;BME280;17579;42.690;2.586;2022-10-28T13:01:29;98033.16;;;23.67;55.04
30873;BME280;17579;42.690;2.586;2022-10-28T13:03:56;98039.19;;;23.69;55.04
30873;BME280;17579;42.690;2.586;2022-10-28T13:21:01;98021.31;;;23.68;56.01
30873;BME280;17579;42.690;2.586;2022-10-28T13:23:40;98019.44;;;23.69;55.42
30873;BME280;17579;42.690;2.586;2022-10-28T13:26:28;98019.03;;;23.65;55.67
30873;BME280;17579;42.690;2.586;2022-10-28T13:28:58;98021.09;;;23.77;55.28
30873;BME280;17579;42.690;2.586;2022-10-28T13:31:37;98025.69;;;23.76;55.10
30873;BME280;17579;42.690;2.586;2022-10-28T13:34:04;98027.53;;;23.82;54.92
30873;BME280;17579;42.690;2.586;2022-10-28T13:36:36;98023.78;;;23.83;54.76
30873;BME280;17579;42.690;2.586;2022-10-28T13:39:13;98014.88;;;23.76;54.80
30873;BME280;17579;42.690;2.586;2022-10-28T13:41:45;98021.28;;;23.82;54.82
30873;BME280;17579;42.690;2.586;2022-10-28T13:44:26;98014.66;;;23.71;55.53
30873;BME280;17579;42.690;2.586;2022-10-28T13:47:04;98019.47;;;23.62;55.49
30873;BME280;17579;42.690;2.586;2022-10-28T13:52:45;98010.09;;;23.78;55.50
30873;BME280;17579;42.690;2.586;2022-10-28T13:55:25;98014.88;;;23.63;55.64
30873;BME280;17579;42.690;2.586;2022-10-28T13:58:01;98019.25;;;23.57;55.45
30873;BME280;17579;42.690;2.586;2022-10-28T14:00:36;98016.34;;;23.59;55.90
30873;BME280;17579;42.690;2.586;2022-10-28T14:05:51;98009.06;;;23.73;55.57
30873;BME280;17579;42.690;2.586;2022-10-28T14:08:32;98007.81;;;23.75;55.46
30873;BME280;17579;42.690;2.586;2022-10-28T14:11:03;98005.72;;;23.91;55.64
30873;BME280;17579;42.690;2.586;2022-10-28T14:13:33;98012.53;;;24.00;55.62
30873;BME280;17579;42.690;2.586;2022-10-28T14:16:29;98009.25;;;23.98;55.46
30873;BME280;17579;42.690;2.586;2022-10-28T14:19:03;98003.41;;;23.94;55.22
30873;BME280;17579;42.690;2.586;2022-10-28T14:22:01;98003.22;;;23.76;55.33
30873;BME280;17579;42.690;2.586;2022-10-28T14:24:36;98010.50;;;23.75;55.95
30873;BME280;17579;42.690;2.586;2022-10-28T14:27:26;98015.09;;;23.61;55.98
30873;BME280;17579;42.690;2.586;2022-10-28T14:30:19;98018.00;;;23.60;56.00
30873;BME280;17579;42.690;2.586;2022-10-28T14:35:43;98013.47;;;23.47;55.66
30873;BME280;17579;42.690;2.586;2022-10-28T14:41:33;98014.50;;;23.26;56.77
30873;BME280;17579;42.690;2.586;2022-10-28T14:49:56;98017.78;;;22.94;57.19
30873;BME280;17579;42.690;2.586;2022-10-28T14:52:23;98015.91;;;22.81;57.90
30873;BME280;17579;42.690;2.586;2022-10-28T14:54:53;98020.22;;;22.69;58.00
30873;BME280;17579;42.690;2.586;2022-10-28T14:57:27;98018.78;;;22.60;58.29
30873;BME280;17579;42.690;2.586;2022-10-28T14:59:54;98015.63;;;22.56;58.36
30873;BME280;17579;42.690;2.586;2022-10-28T15:02:23;98018.50;;;22.48;58.84
30873;BME280;17579;42.690;2.586;2022-10-28T15:05:02;98023.66;;;22.36;58.83
30873;BME280;17579;42.690;2.586;2022-10-28T15:07:29;98025.94;;;22.33;59.58
30873;BME280;17579;42.690;2.586;2022-10-28T15:09:56;98025.44;;;22.22;59.81
30873;BME280;17579;42.690;2.586;2022-10-28T15:12:23;98028.94;;;22.16;60.04
30873;BME280;17579;42.690;2.586;2022-10-28T15:14:55;98026.00;;;22.11;60.79
30873;BME280;17579;42.690;2.586;2022-10-28T15:17:26;98021.66;;;22.10;60.32
30873;BME280;17579;42.690;2.586;2022-10-28T15:19:58;98022.28;;;22.05;60.54
30873;BME280;17579;42.690;2.586;2022-10-28T15:22:26;98022.66;;;22.02;60.57
30873;BME280;17579;42.690;2.586;2022-10-28T15:25:10;98025.13;;;21.97;60.44
30873;BME280;17579;42.690;2.586;2022-10-28T15:27:38;98022.66;;;22.02;60.54